createdAt,value
2022-09-27T00:01:38.453Z,34.13
2022-09-27T00:04:07.069Z,25.77
2022-09-27T00:06:39.944Z,24.67
2022-09-27T00:09:10.254Z,29.13
2022-09-27T00:11:42.750Z,28.55
2022-09-27T00:14:13.722Z,16.80
2022-09-27T00:16:43.378Z,18.90
2022-09-27T00:19:17.786Z,13.20
2022-09-27T00:21:46.627Z,14.20
2022-09-27T00:24:17.390Z,15.68
2022-09-27T00:26:47.242Z,23.05
2022-09-27T00:29:17.901Z,26.55
2022-09-27T00:31:46.585Z,109.35
2022-09-27T00:34:23.532Z,172.90
2022-09-27T00:36:53.068Z,204.40
2022-09-27T00:39:22.087Z,194.30
2022-09-27T00:41:50.213Z,139.02
2022-09-27T00:44:33.661Z,120.22
2022-09-27T00:47:20.245Z,148.57
2022-09-27T00:49:54.408Z,207.25
2022-09-27T00:52:26.267Z,165.68
2022-09-27T00:55:01.458Z,57.08
2022-09-27T00:57:31.658Z,159.98
2022-09-27T01:00:09.747Z,38.80
2022-09-27T01:02:44.291Z,39.88
2022-09-27T01:05:16.154Z,61.25
2022-09-27T01:07:44.646Z,55.75
2022-09-27T01:10:47.282Z,35.95
2022-09-27T01:13:36.209Z,26.67
2022-09-27T01:16:16.581Z,29.60
2022-09-27T01:18:56.491Z,47.90
2022-09-27T01:21:38.055Z,326.98
2022-09-27T01:24:38.140Z,197.10
2022-09-27T01:27:06.679Z,481.55
2022-09-27T01:29:50.383Z,373.17
2022-09-27T01:32:41.272Z,162.00
2022-09-27T01:35:59.485Z,161.63
2022-09-27T01:38:38.496Z,70.38
2022-09-27T01:41:18.510Z,115.45
2022-09-27T01:44:29.164Z,95.20
2022-09-27T01:47:13.190Z,338.77
2022-09-27T01:50:12.056Z,237.27
2022-09-27T01:52:51.147Z,55.88
2022-09-27T01:55:24.467Z,316.95
2022-09-27T01:58:19.326Z,210.05
2022-09-27T02:00:53.419Z,239.80
2022-09-27T02:03:28.563Z,238.30
2022-09-27T02:07:09.035Z,41.53
2022-09-27T02:09:47.890Z,128.98
2022-09-27T02:12:27.759Z,431.70
2022-09-27T02:15:16.783Z,252.63
2022-09-27T02:18:09.110Z,251.13
2022-09-27T02:20:46.369Z,159.65
2022-09-27T02:24:01.776Z,202.55
2022-09-27T02:26:44.304Z,247.20
2022-09-27T02:29:21.173Z,166.43
2022-09-27T02:31:53.404Z,204.23
2022-09-27T02:34:26.209Z,176.20
2022-09-27T02:36:55.667Z,80.78
2022-09-27T02:39:24.676Z,167.93
2022-09-27T02:42:03.024Z,161.85
2022-09-27T02:44:32.386Z,184.20
2022-09-27T02:47:46.218Z,103.72
2022-09-27T02:50:33.510Z,144.27
2022-09-27T02:53:53.889Z,90.85
2022-09-27T02:57:17.897Z,69.63
2022-09-27T03:00:20.735Z,52.83
2022-09-27T03:03:18.114Z,61.15
2022-09-27T03:06:02.734Z,31.27
2022-09-27T03:08:31.331Z,59.15
2022-09-27T03:10:59.792Z,44.58
2022-09-27T03:13:28.511Z,126.97
2022-09-27T03:16:01.566Z,258.23
2022-09-27T03:19:33.851Z,121.13
2022-09-27T03:22:27.782Z,40.53
2022-09-27T03:24:56.659Z,35.08
2022-09-27T03:27:25.278Z,36.08
2022-09-27T03:29:53.379Z,37.30
2022-09-27T03:32:21.405Z,108.90
2022-09-27T03:35:19.365Z,52.90
2022-09-27T03:37:48.619Z,37.70
2022-09-27T03:40:16.742Z,37.40
2022-09-27T03:42:49.477Z,33.78
2022-09-27T03:45:18.858Z,168.95
2022-09-27T03:47:48.364Z,50.65
2022-09-27T03:50:16.679Z,91.95
2022-09-27T03:52:45.010Z,370.17
2022-09-27T03:55:14.644Z,367.88
2022-09-27T03:57:46.964Z,329.08
2022-09-27T04:00:18.053Z,240.30
2022-09-27T04:02:46.643Z,363.88
2022-09-27T04:05:26.812Z,201.95
2022-09-27T04:08:01.637Z,154.48
2022-09-27T04:10:33.519Z,118.10
2022-09-27T04:13:02.895Z,193.40
2022-09-27T04:15:37.313Z,117.80
2022-09-27T04:18:24.470Z,147.15
2022-09-27T04:21:11.318Z,127.53
2022-09-27T04:23:46.863Z,187.90
2022-09-27T04:26:18.545Z,172.60
2022-09-27T04:28:54.451Z,253.13
2022-09-27T04:31:24.602Z,204.85
2022-09-27T04:34:01.582Z,305.25
2022-09-27T04:36:34.791Z,261.48
2022-09-27T04:39:23.460Z,186.13
2022-09-27T04:41:52.347Z,171.20
2022-09-27T04:44:20.358Z,317.98
2022-09-27T04:46:51.894Z,260.70
2022-09-27T04:49:20.019Z,179.98
2022-09-27T04:51:49.076Z,186.00
2022-09-27T04:54:17.800Z,271.42
2022-09-27T04:56:54.469Z,212.38
2022-09-27T04:59:23.279Z,136.32
2022-09-27T05:01:52.595Z,127.57
2022-09-27T05:04:49.317Z,132.60
2022-09-27T05:07:20.378Z,133.40
2022-09-27T05:09:56.029Z,189.27
2022-09-27T05:12:26.980Z,71.13
2022-09-27T05:15:00.643Z,233.88
2022-09-27T05:17:46.993Z,308.13
2022-09-27T05:20:51.110Z,360.23
2022-09-27T05:23:27.402Z,256.58
2022-09-27T05:25:57.467Z,256.27
2022-09-27T05:28:25.684Z,234.65
2022-09-27T05:30:53.690Z,61.15
2022-09-27T05:33:22.863Z,141.75
2022-09-27T05:35:55.895Z,243.38
2022-09-27T05:38:28.726Z,272.55
2022-09-27T05:40:59.850Z,207.27
2022-09-27T05:43:29.016Z,146.65
2022-09-27T05:46:00.991Z,153.70
2022-09-27T05:48:30.713Z,49.63
2022-09-27T05:51:06.493Z,45.28
2022-09-27T05:53:38.038Z,44.50
2022-09-27T05:56:09.126Z,95.10
2022-09-27T05:58:55.256Z,79.03
2022-09-27T06:01:26.913Z,77.80
2022-09-27T06:04:14.116Z,76.55
2022-09-27T06:07:08.376Z,99.00
2022-09-27T06:09:36.652Z,105.60
2022-09-27T06:12:04.631Z,136.38
2022-09-27T06:14:35.098Z,143.95
2022-09-27T06:17:10.538Z,21.55
2022-09-27T06:19:43.104Z,29.55
2022-09-27T06:22:11.382Z,11.52
2022-09-27T06:24:49.960Z,9.40
2022-09-27T06:27:22.879Z,13.15
2022-09-27T06:30:01.461Z,10.90
2022-09-27T06:33:03.182Z,6.88
2022-09-27T06:35:50.795Z,9.82
2022-09-27T06:38:21.705Z,10.68
2022-09-27T06:41:06.746Z,10.43
2022-09-27T06:43:52.256Z,8.25
2022-09-27T06:46:40.761Z,5.47
2022-09-27T06:49:27.241Z,6.90
2022-09-27T06:51:56.818Z,5.95
2022-09-27T06:54:25.715Z,7.30
2022-09-27T06:56:56.994Z,5.45
2022-09-27T06:59:46.933Z,5.35
2022-09-27T07:02:34.133Z,6.82
2022-09-27T07:05:21.931Z,5.18
2022-09-27T07:08:12.939Z,7.60
2022-09-27T07:10:41.654Z,7.22
2022-09-27T07:13:11.564Z,5.95
2022-09-27T07:15:42.470Z,7.05
2022-09-27T07:18:15.317Z,7.70
2022-09-27T07:20:44.195Z,6.53
2022-09-27T07:23:14.279Z,8.50
2022-09-27T07:25:42.902Z,6.38
2022-09-27T07:28:36.621Z,8.05
2022-09-27T07:31:06.070Z,8.02
2022-09-27T07:33:34.147Z,6.00
2022-09-27T07:36:11.565Z,9.63
2022-09-27T07:38:42.522Z,10.13
2022-09-27T07:41:16.094Z,7.72
2022-09-27T07:43:45.651Z,7.88
2022-09-27T07:46:15.342Z,9.77
2022-09-27T07:48:52.537Z,10.13
2022-09-27T07:51:39.487Z,5.53
2022-09-27T07:54:30.604Z,5.30
2022-09-27T07:59:48.841Z,7.70
2022-09-27T08:02:21.138Z,7.60
2022-09-27T08:04:51.599Z,6.72
2022-09-27T08:07:21.082Z,6.35
2022-09-27T08:12:22.500Z,11.02
2022-09-27T08:14:52.239Z,9.30
2022-09-27T08:17:20.925Z,9.82
2022-09-27T08:20:21.612Z,8.60
2022-09-27T08:23:08.313Z,8.18
2022-09-27T08:25:40.188Z,10.20
2022-09-27T08:28:27.951Z,5.30
2022-09-27T08:31:04.891Z,7.75
2022-09-27T08:33:39.107Z,10.45
2022-09-27T08:36:13.306Z,10.77
2022-09-27T08:38:43.156Z,8.32
2022-09-27T08:41:40.813Z,13.57
2022-09-27T08:44:28.670Z,14.23
2022-09-27T08:47:15.356Z,11.23
2022-09-27T08:50:27.819Z,10.18
2022-09-27T08:52:59.428Z,10.13
2022-09-27T08:55:49.525Z,9.48
2022-09-27T08:58:52.902Z,7.07
2022-09-27T09:01:36.206Z,8.82
2022-09-27T09:04:12.842Z,5.60
2022-09-27T09:06:56.016Z,9.07
2022-09-27T09:10:09.669Z,8.65
2022-09-27T09:12:59.971Z,6.38
2022-09-27T09:16:06.879Z,11.15
2022-09-27T09:19:06.408Z,7.80
2022-09-27T09:21:42.931Z,7.95
2022-09-27T09:24:35.260Z,6.20
2022-09-27T09:27:40.233Z,12.25
2022-09-27T09:30:22.809Z,9.98
2022-09-27T09:33:15.999Z,8.55
2022-09-27T09:36:12.606Z,11.13
2022-09-27T09:38:58.118Z,15.75
2022-09-27T09:41:43.461Z,9.90
2022-09-27T09:44:27.770Z,12.25
2022-09-27T09:47:00.706Z,8.30
2022-09-27T09:49:40.626Z,8.77
2022-09-27T09:52:32.836Z,11.25
2022-09-27T09:55:14.076Z,10.18
2022-09-27T09:58:06.378Z,12.43
2022-09-27T10:00:45.066Z,11.38
2022-09-27T10:03:14.027Z,10.38
2022-09-27T10:05:44.571Z,6.95
2022-09-27T10:08:20.758Z,9.00
2022-09-27T10:13:50.183Z,10.13
2022-09-27T10:16:20.866Z,8.45
2022-09-27T10:18:51.869Z,9.98
2022-09-27T10:21:27.871Z,12.80
2022-09-27T10:24:12.392Z,8.68
2022-09-27T10:27:04.206Z,10.82
2022-09-27T10:29:38.376Z,10.95
2022-09-27T10:32:23.871Z,10.75
2022-09-27T10:35:22.826Z,9.55
2022-09-27T10:38:17.361Z,8.00
2022-09-27T10:40:46.736Z,9.77
2022-09-27T10:43:29.854Z,12.60
2022-09-27T10:46:09.749Z,11.43
2022-09-27T10:48:41.858Z,8.15
2022-09-27T10:51:30.959Z,11.18
2022-09-27T10:54:01.612Z,9.18
2022-09-27T10:56:36.158Z,11.18
2022-09-27T10:59:06.318Z,10.50
2022-09-27T11:01:48.550Z,9.85
2022-09-27T11:04:30.477Z,9.13
2022-09-27T11:07:20.234Z,11.82
2022-09-27T11:10:04.199Z,10.18
2022-09-27T11:12:36.804Z,11.35
2022-09-27T11:15:14.878Z,9.07
2022-09-27T11:18:03.760Z,7.00
2022-09-27T11:20:46.865Z,6.05
2022-09-27T11:23:43.531Z,11.25
2022-09-27T11:26:54.551Z,11.68
2022-09-27T11:29:50.919Z,7.10
2022-09-27T11:33:10.053Z,8.85
2022-09-27T11:36:18.146Z,8.88
2022-09-27T11:39:18.328Z,8.70
2022-09-27T11:41:54.200Z,7.82
2022-09-27T11:44:47.665Z,10.55
2022-09-27T11:50:43.709Z,13.23
2022-09-27T11:53:19.073Z,10.27
2022-09-27T11:56:11.230Z,8.73
2022-09-27T11:59:01.211Z,8.18
2022-09-27T12:01:55.080Z,6.97
2022-09-27T12:04:44.312Z,8.10
2022-09-27T12:07:35.630Z,8.18
2022-09-27T12:10:14.030Z,16.45
2022-09-27T12:12:46.026Z,10.55
2022-09-27T12:15:36.478Z,9.88
2022-09-27T12:18:32.339Z,8.88
2022-09-27T12:21:08.236Z,12.02
2022-09-27T12:24:09.377Z,8.43
2022-09-27T12:26:54.211Z,13.77
2022-09-27T12:29:34.160Z,9.00
2022-09-27T12:32:16.355Z,8.98
2022-09-27T12:35:03.715Z,8.13
2022-09-27T12:37:42.771Z,7.30
2022-09-27T12:40:17.278Z,7.95
2022-09-27T12:43:01.004Z,8.88
2022-09-27T12:46:07.648Z,10.50
2022-09-27T12:48:54.974Z,10.15
2022-09-27T12:51:25.350Z,11.25
2022-09-27T12:54:25.721Z,10.10
2022-09-27T12:57:18.517Z,9.77
2022-09-27T13:00:00.293Z,8.48
2022-09-27T13:03:20.493Z,6.28
2022-09-27T13:06:39.386Z,8.77
2022-09-27T13:09:11.699Z,10.10
2022-09-27T13:11:58.126Z,11.18
2022-09-27T13:14:30.379Z,12.10
2022-09-27T13:16:58.980Z,7.43
2022-09-27T13:20:31.221Z,10.57
2022-09-27T13:23:02.498Z,9.57
2022-09-27T13:25:59.850Z,9.75
2022-09-27T13:28:51.906Z,10.93
2022-09-27T13:32:00.071Z,13.80
2022-09-27T13:34:57.308Z,17.52
2022-09-27T13:37:40.202Z,6.57
2022-09-27T13:40:24.535Z,12.30
2022-09-27T13:43:42.167Z,11.23
2022-09-27T13:46:37.246Z,12.02
2022-09-27T13:49:16.805Z,7.45
2022-09-27T13:52:25.317Z,10.93
2022-09-27T13:58:00.473Z,11.90
2022-09-27T14:00:44.228Z,9.55
2022-09-27T14:03:12.457Z,8.20
2022-09-27T14:05:50.791Z,8.85
2022-09-27T14:08:48.485Z,8.15
2022-09-27T14:11:28.376Z,11.07
2022-09-27T14:13:58.985Z,8.27
2022-09-27T14:16:35.944Z,10.43
2022-09-27T14:19:04.350Z,7.75
2022-09-27T14:21:40.776Z,10.00
2022-09-27T14:24:37.145Z,7.45
2022-09-27T14:27:22.008Z,7.93
2022-09-27T14:30:22.784Z,9.48
2022-09-27T14:33:01.733Z,10.88
2022-09-27T14:36:10.980Z,10.30
2022-09-27T14:38:42.291Z,9.68
2022-09-27T14:41:37.554Z,8.55
2022-09-27T14:44:17.513Z,12.93
2022-09-27T14:46:46.772Z,8.18
2022-09-27T14:49:21.449Z,8.85
2022-09-27T14:51:55.244Z,9.02
2022-09-27T14:54:30.568Z,12.13
2022-09-27T14:57:00.382Z,9.90
2022-09-27T14:59:34.867Z,8.95
2022-09-27T15:02:18.210Z,12.00
2022-09-27T15:04:52.481Z,6.32
2022-09-27T15:07:22.877Z,4.90
2022-09-27T15:09:52.031Z,7.90
2022-09-27T15:12:28.607Z,9.75
2022-09-27T15:15:03.800Z,12.43
2022-09-27T15:17:44.115Z,10.65
2022-09-27T15:20:31.024Z,9.48
2022-09-27T15:23:05.031Z,9.18
2022-09-27T15:25:42.315Z,7.55
2022-09-27T15:28:11.350Z,8.65
2022-09-27T15:30:41.439Z,9.88
2022-09-27T15:33:26.752Z,11.23
2022-09-27T15:36:03.732Z,10.45
2022-09-27T15:38:48.954Z,10.30
2022-09-27T15:41:20.386Z,10.10
2022-09-27T15:43:53.140Z,10.68
2022-09-27T15:46:28.493Z,10.88
2022-09-27T15:49:18.108Z,12.05
2022-09-27T15:51:52.240Z,10.93
2022-09-27T15:54:27.197Z,9.68
2022-09-27T15:56:56.789Z,16.30
2022-09-27T15:59:30.337Z,12.18
2022-09-27T16:02:05.585Z,12.20
2022-09-27T16:04:36.230Z,8.32
2022-09-27T16:07:09.137Z,8.05
2022-09-27T16:09:38.738Z,9.25
2022-09-27T16:12:07.474Z,10.55
2022-09-27T16:14:35.404Z,8.23
2022-09-27T16:17:03.816Z,7.20
2022-09-27T16:19:31.888Z,11.60
2022-09-27T16:22:03.570Z,6.82
2022-09-27T16:24:32.539Z,8.07
2022-09-27T16:27:00.599Z,8.65
2022-09-27T16:29:29.159Z,6.80
2022-09-27T16:31:58.026Z,13.52
2022-09-27T16:34:26.120Z,10.35
2022-09-27T16:36:54.086Z,9.60
2022-09-27T16:39:22.629Z,13.13
2022-09-27T16:41:53.862Z,12.35
2022-09-27T16:44:22.840Z,12.90
2022-09-27T16:46:51.652Z,12.02
2022-09-27T16:49:38.473Z,8.77
2022-09-27T16:52:06.464Z,8.60
2022-09-27T16:54:41.183Z,10.80
2022-09-27T16:57:10.319Z,13.90
2022-09-27T16:59:39.428Z,11.73
2022-09-27T17:02:07.879Z,10.40
2022-09-27T17:04:37.126Z,14.15
2022-09-27T17:07:05.116Z,9.23
2022-09-27T17:09:33.302Z,10.15
2022-09-27T17:12:01.929Z,12.60
2022-09-27T17:14:32.310Z,11.27
2022-09-27T17:17:01.554Z,8.10
2022-09-27T17:19:29.847Z,11.70
2022-09-27T17:21:57.829Z,9.88
2022-09-27T17:24:26.094Z,9.32
2022-09-27T17:26:55.477Z,12.02
2022-09-27T17:29:23.464Z,12.13
2022-09-27T17:31:52.127Z,11.98
2022-09-27T17:34:20.762Z,11.93
2022-09-27T17:36:50.484Z,10.50
2022-09-27T17:39:22.586Z,13.23
2022-09-27T17:41:51.282Z,11.32
2022-09-27T17:44:19.990Z,10.95
2022-09-27T17:47:09.166Z,10.40
2022-09-27T17:49:56.199Z,7.90
2022-09-27T17:52:26.737Z,9.35
2022-09-27T17:54:57.592Z,12.98
2022-09-27T17:57:26.111Z,11.05
2022-09-27T17:59:54.207Z,11.68
2022-09-27T18:02:23.394Z,10.88
2022-09-27T18:04:52.147Z,14.05
2022-09-27T18:07:20.138Z,10.52
2022-09-27T18:09:48.344Z,16.20
2022-09-27T18:12:16.848Z,15.00
2022-09-27T18:14:45.907Z,13.63
2022-09-27T18:17:15.217Z,15.93
2022-09-27T18:19:43.675Z,16.02
2022-09-27T18:22:12.109Z,20.80
2022-09-27T18:24:40.457Z,20.27
2022-09-27T18:27:08.912Z,18.77
2022-09-27T18:29:37.143Z,15.50
2022-09-27T18:32:05.005Z,17.45
2022-09-27T18:34:33.619Z,14.40
2022-09-27T18:37:02.149Z,18.98
2022-09-27T18:39:31.201Z,13.55
2022-09-27T18:41:59.386Z,21.33
2022-09-27T18:44:27.343Z,18.20
2022-09-27T18:46:55.803Z,18.67
2022-09-27T18:49:27.675Z,19.27
2022-09-27T18:51:57.379Z,16.73
2022-09-27T18:54:25.901Z,13.32
2022-09-27T18:56:53.848Z,22.83
2022-09-27T18:59:24.089Z,21.42
2022-09-27T19:01:53.053Z,22.92
2022-09-27T19:04:24.957Z,13.63
2022-09-27T19:06:54.578Z,19.40
2022-09-27T19:09:23.130Z,22.35
2022-09-27T19:11:51.152Z,16.95
2022-09-27T19:14:22.468Z,20.23
2022-09-27T19:16:51.307Z,20.67
2022-09-27T19:19:20.844Z,12.13
2022-09-27T19:21:49.192Z,15.48
2022-09-27T19:24:19.010Z,20.45
2022-09-27T19:26:47.268Z,17.48
2022-09-27T19:29:16.422Z,15.02
2022-09-27T19:31:44.984Z,13.60
2022-09-27T19:34:13.326Z,10.68
2022-09-27T19:36:41.532Z,13.15
2022-09-27T19:39:09.578Z,14.30
2022-09-27T19:41:38.721Z,17.60
2022-09-27T19:44:06.939Z,14.50
2022-09-27T19:46:35.390Z,12.82
2022-09-27T19:49:04.027Z,12.55
2022-09-27T19:51:32.551Z,13.90
2022-09-27T19:54:00.922Z,13.18
2022-09-27T19:56:29.298Z,11.90
2022-09-27T19:58:57.304Z,11.88
2022-09-27T20:01:26.817Z,17.20
2022-09-27T20:03:56.000Z,16.33
2022-09-27T20:06:24.171Z,15.90
2022-09-27T20:08:52.611Z,16.42
2022-09-27T20:11:23.339Z,13.90
2022-09-27T20:13:55.322Z,20.35
2022-09-27T20:16:25.460Z,19.98
2022-09-27T20:18:55.990Z,27.38
2022-09-27T20:21:32.797Z,20.98
2022-09-27T20:24:03.413Z,21.00
2022-09-27T20:26:34.741Z,22.13
2022-09-27T20:29:04.467Z,24.23
2022-09-27T20:31:36.936Z,21.13
2022-09-27T20:34:12.357Z,25.33
2022-09-27T20:36:44.130Z,19.85
2022-09-27T20:39:14.258Z,19.33
2022-09-27T20:41:45.890Z,24.25
2022-09-27T20:44:16.958Z,25.13
2022-09-27T20:46:46.977Z,21.77
2022-09-27T20:49:18.718Z,25.83
2022-09-27T20:51:48.613Z,30.75
2022-09-27T20:54:16.604Z,24.30
2022-09-27T20:56:46.762Z,23.10
2022-09-27T20:59:20.659Z,26.23
2022-09-27T21:01:50.808Z,21.52
2022-09-27T21:04:19.961Z,20.27
2022-09-27T21:06:48.062Z,20.25
2022-09-27T21:09:19.928Z,16.83
2022-09-27T21:11:49.589Z,22.95
2022-09-27T21:14:18.270Z,24.13
2022-09-27T21:16:46.305Z,24.75
2022-09-27T21:19:14.417Z,18.13
2022-09-27T21:21:43.422Z,16.33
2022-09-27T21:24:11.832Z,21.40
2022-09-27T21:26:39.927Z,24.35
2022-09-27T21:29:09.540Z,25.40
2022-09-27T21:31:38.899Z,19.63
2022-09-27T21:34:07.107Z,23.67
2022-09-27T21:36:39.511Z,21.48
2022-09-27T21:39:09.145Z,21.65
2022-09-27T21:41:39.107Z,23.08
2022-09-27T21:44:08.865Z,20.98
2022-09-27T21:46:40.104Z,24.38
2022-09-27T21:49:08.774Z,25.00
2022-09-27T21:51:42.281Z,20.92
2022-09-27T21:54:17.210Z,18.25
2022-09-27T21:56:45.878Z,14.30
2022-09-27T21:59:16.175Z,15.35
2022-09-27T22:01:46.261Z,17.00
2022-09-27T22:04:15.062Z,16.00
2022-09-27T22:06:43.126Z,15.63
2022-09-27T22:09:17.368Z,15.15
2022-09-27T22:11:47.638Z,18.30
2022-09-27T22:14:18.914Z,14.93
2022-09-27T22:16:47.621Z,14.63
2022-09-27T22:19:16.236Z,16.38
2022-09-27T22:21:44.905Z,15.07
2022-09-27T22:24:16.725Z,17.92
2022-09-27T22:26:50.396Z,17.02
2022-09-27T22:29:19.218Z,20.80
2022-09-27T22:31:47.885Z,14.25
2022-09-27T22:34:18.931Z,17.10
2022-09-27T22:36:47.089Z,15.75
2022-09-27T22:39:16.155Z,14.90
2022-09-27T22:41:44.454Z,13.88
2022-09-27T22:44:12.409Z,13.77
2022-09-27T22:46:40.409Z,16.73
2022-09-27T22:49:09.343Z,15.55
2022-09-27T22:51:38.193Z,16.60
2022-09-27T22:54:06.426Z,15.10
2022-09-27T22:56:34.453Z,12.75
2022-09-27T22:59:02.949Z,12.68
2022-09-27T23:01:31.597Z,13.20
2022-09-27T23:03:59.850Z,17.42
2022-09-27T23:06:28.445Z,11.35
2022-09-27T23:08:58.271Z,14.23
2022-09-27T23:11:26.251Z,12.55
2022-09-27T23:13:54.524Z,17.30
2022-09-27T23:16:26.486Z,15.32
2022-09-27T23:18:56.959Z,10.25
2022-09-27T23:21:26.426Z,13.00
2022-09-27T23:23:57.240Z,12.65
2022-09-27T23:26:27.426Z,10.05
2022-09-27T23:28:58.422Z,12.20
2022-09-27T23:31:29.857Z,11.70
2022-09-27T23:34:01.655Z,10.95
2022-09-27T23:36:30.420Z,13.70
2022-09-27T23:39:01.333Z,12.32
2022-09-27T23:41:29.909Z,15.48
2022-09-27T23:43:58.143Z,13.43
2022-09-27T23:46:26.678Z,14.40
2022-09-27T23:48:58.913Z,14.38
2022-09-27T23:51:27.592Z,18.23
2022-09-27T23:53:57.232Z,19.27
2022-09-27T23:56:26.533Z,23.13
2022-09-27T23:58:54.607Z,9.90
